sensor_id;sensor_type;location;lat;lon;timestamp;pressure;altitude;pressure_sealevel;temperature;humidity
70468;BME280;57934;51.532;7.684;2022-10-03T00:16:22;101218.88;;;9.35;nan
70468;BME280;57934;51.532;7.684;2022-10-03T00:27:13;101237.63;;;9.32;nan
70468;BME280;57934;51.532;7.684;2022-10-03T00:30:07;101234.16;;;9.31;nan
70468;BME280;57934;51.532;7.684;2022-10-03T00:35:34;101238.75;;;9.29;nan
70468;BME280;57934;51.532;7.684;2022-10-03T00:41:19;101244.19;;;9.28;nan
70468;BME280;57934;51.532;7.684;2022-10-03T00:46:41;101249.59;;;9.18;nan
70468;BME280;57934;51.532;7.684;2022-10-03T00:49:46;101256.66;;;9.18;nan
70468;BME280;57934;51.532;7.684;2022-10-03T00:57:58;101267.69;;;9.13;nan
70468;BME280;57934;51.532;7.684;2022-10-03T01:00:27;101277.53;;;9.19;nan
70468;BME280;57934;51.532;7.684;2022-10-03T01:03:18;101276.41;;;9.22;nan
70468;BME280;57934;51.532;7.684;2022-10-03T01:06:12;101279.66;;;9.16;nan
70468;BME280;57934;51.532;7.684;2022-10-03T01:09:05;101272.28;;;9.19;nan
70468;BME280;57934;51.532;7.684;2022-10-03T01:25:24;101286.03;;;9.05;nan
70468;BME280;57934;51.532;7.684;2022-10-03T01:31:09;101287.53;;;8.99;nan
70468;BME280;57934;51.532;7.684;2022-10-03T01:33:43;101282.56;;;8.96;nan
70468;BME280;57934;51.532;7.684;2022-10-03T01:36:39;101290.59;;;8.95;nan
70468;BME280;57934;51.532;7.684;2022-10-03T01:41:57;101293.75;;;8.98;nan
70468;BME280;57934;51.532;7.684;2022-10-03T01:45:06;101293.13;;;9.04;nan
70468;BME280;57934;51.532;7.684;2022-10-03T01:48:08;101290.50;;;9.04;nan
70468;BME280;57934;51.532;7.684;2022-10-03T01:50:47;101290.50;;;9.04;nan
70468;BME280;57934;51.532;7.684;2022-10-03T01:56:26;101287.53;;;8.99;nan
70468;BME280;57934;51.532;7.684;2022-10-03T01:59:12;101293.44;;;9.01;nan
70468;BME280;57934;51.532;7.684;2022-10-03T02:01:49;101286.53;;;9.00;nan
70468;BME280;57934;51.532;7.684;2022-10-03T02:04:27;101296.53;;;8.97;nan
70468;BME280;57934;51.532;7.684;2022-10-03T02:09:58;101302.63;;;8.97;nan
70468;BME280;57934;51.532;7.684;2022-10-03T02:12:30;101303.31;;;8.99;nan
70468;BME280;57934;51.532;7.684;2022-10-03T02:15:21;101306.06;;;8.98;nan
70468;BME280;57934;51.532;7.684;2022-10-03T02:17:53;101309.53;;;8.98;nan
70468;BME280;57934;51.532;7.684;2022-10-03T02:20:27;101313.47;;;8.94;nan
70468;BME280;57934;51.532;7.684;2022-10-03T02:22:57;101314.78;;;8.98;nan
70468;BME280;57934;51.532;7.684;2022-10-03T02:25:25;101321.22;;;8.96;nan
70468;BME280;57934;51.532;7.684;2022-10-03T02:28:12;101319.41;;;8.96;nan
70468;BME280;57934;51.532;7.684;2022-10-03T02:39:50;101327.09;;;9.24;nan
70468;BME280;57934;51.532;7.684;2022-10-03T02:42:40;101326.78;;;9.27;nan
70468;BME280;57934;51.532;7.684;2022-10-03T02:48:28;101336.19;;;9.38;nan
70468;BME280;57934;51.532;7.684;2022-10-03T02:54:11;101339.97;;;9.35;nan
70468;BME280;57934;51.532;7.684;2022-10-03T03:00:21;101341.22;;;9.23;nan
70468;BME280;57934;51.532;7.684;2022-10-03T03:03:21;101336.28;;;9.20;nan
70468;BME280;57934;51.532;7.684;2022-10-03T03:05:56;101337.06;;;9.12;nan
70468;BME280;57934;51.532;7.684;2022-10-03T03:16:59;101341.56;;;8.94;nan
70468;BME280;57934;51.532;7.684;2022-10-03T03:19:44;101341.22;;;8.89;nan
70468;BME280;57934;51.532;7.684;2022-10-03T03:22:33;101353.69;;;8.87;nan
70468;BME280;57934;51.532;7.684;2022-10-03T03:28:17;101353.34;;;8.81;nan
70468;BME280;57934;51.532;7.684;2022-10-03T03:31:00;101347.41;;;8.79;nan
70468;BME280;57934;51.532;7.684;2022-10-03T03:36:09;101354.16;;;8.82;nan
70468;BME280;57934;51.532;7.684;2022-10-03T03:44:48;101348.97;;;8.98;nan
70468;BME280;57934;51.532;7.684;2022-10-03T03:47:31;101348.22;;;9.06;nan
70468;BME280;57934;51.532;7.684;2022-10-03T03:58:39;101359.50;;;9.24;nan
70468;BME280;57934;51.532;7.684;2022-10-03T04:06:58;101353.00;;;9.45;nan
70468;BME280;57934;51.532;7.684;2022-10-03T04:09:57;101358.59;;;9.50;nan
70468;BME280;57934;51.532;7.684;2022-10-03T04:12:31;101359.72;;;9.47;nan
70468;BME280;57934;51.532;7.684;2022-10-03T04:23:51;101367.50;;;9.57;nan
70468;BME280;57934;51.532;7.684;2022-10-03T04:26:30;101374.59;;;9.56;nan
70468;BME280;57934;51.532;7.684;2022-10-03T04:29:40;101372.78;;;9.57;nan
70468;BME280;57934;51.532;7.684;2022-10-03T04:32:22;101378.34;;;9.54;nan
70468;BME280;57934;51.532;7.684;2022-10-03T04:40:24;101382.78;;;9.45;nan
70468;BME280;57934;51.532;7.684;2022-10-03T04:48:58;101371.34;;;9.28;nan
70468;BME280;57934;51.532;7.684;2022-10-03T04:54:55;101369.72;;;9.36;nan
70468;BME280;57934;51.532;7.684;2022-10-03T04:57:49;101374.69;;;9.39;nan
70468;BME280;57934;51.532;7.684;2022-10-03T05:00:23;101374.19;;;9.35;nan
70468;BME280;57934;51.532;7.684;2022-10-03T05:03:00;101374.84;;;9.37;nan
70468;BME280;57934;51.532;7.684;2022-10-03T05:05:51;101375.16;;;9.34;nan
70468;BME280;57934;51.532;7.684;2022-10-03T05:08:41;101377.94;;;9.32;nan
70468;BME280;57934;51.532;7.684;2022-10-03T05:14:39;101381.25;;;9.35;nan
70468;BME280;57934;51.532;7.684;2022-10-03T05:17:23;101381.91;;;9.37;nan
70468;BME280;57934;51.532;7.684;2022-10-03T05:22:55;101383.91;;;9.43;nan
70468;BME280;57934;51.532;7.684;2022-10-03T05:28:38;101389.84;;;9.45;nan
70468;BME280;57934;51.532;7.684;2022-10-03T05:31:14;101390.00;;;9.43;nan
70468;BME280;57934;51.532;7.684;2022-10-03T05:33:51;101394.75;;;9.40;nan
70468;BME280;57934;51.532;7.684;2022-10-03T05:41:31;101400.06;;;9.48;nan
70468;BME280;57934;51.532;7.684;2022-10-03T05:44:02;101398.44;;;9.55;nan
70468;BME280;57934;51.532;7.684;2022-10-03T05:58:28;101404.97;;;9.43;nan
70468;BME280;57934;51.532;7.684;2022-10-03T06:01:05;101400.69;;;9.42;nan
70468;BME280;57934;51.532;7.684;2022-10-03T06:06:41;101405.47;;;9.46;nan
70468;BME280;57934;51.532;7.684;2022-10-03T06:12:37;101412.25;;;9.57;nan
70468;BME280;57934;51.532;7.684;2022-10-03T06:15:32;101420.53;;;9.62;nan
70468;BME280;57934;51.532;7.684;2022-10-03T06:24:17;101425.50;;;9.65;nan
70468;BME280;57934;51.532;7.684;2022-10-03T06:30:01;101429.13;;;9.72;nan
70468;BME280;57934;51.532;7.684;2022-10-03T06:33:00;101431.59;;;9.74;nan
70468;BME280;57934;51.532;7.684;2022-10-03T06:41:28;101439.19;;;9.85;nan
70468;BME280;57934;51.532;7.684;2022-10-03T06:53:33;101438.13;;;10.12;nan
70468;BME280;57934;51.532;7.684;2022-10-03T07:02:10;101445.63;;;10.33;nan
70468;BME280;57934;51.532;7.684;2022-10-03T07:05:13;101436.88;;;10.49;nan
70468;BME280;57934;51.532;7.684;2022-10-03T07:10:59;101443.47;;;10.69;nan
70468;BME280;57934;51.532;7.684;2022-10-03T07:24:53;101459.16;;;11.59;nan
70468;BME280;57934;51.532;7.684;2022-10-03T07:28:14;101459.78;;;11.69;nan
70468;BME280;57934;51.532;7.684;2022-10-03T07:30:54;101459.84;;;12.01;nan
70468;BME280;57934;51.532;7.684;2022-10-03T07:36:21;101467.00;;;12.46;nan
70468;BME280;57934;51.532;7.684;2022-10-03T07:39:14;101468.72;;;12.77;nan
70468;BME280;57934;51.532;7.684;2022-10-03T07:41:51;101482.19;;;12.90;nan
70468;BME280;57934;51.532;7.684;2022-10-03T08:33:46;101510.81;;;19.42;nan
70468;BME280;57934;51.532;7.684;2022-10-03T08:41:42;101515.16;;;23.24;nan
70468;BME280;57934;51.532;7.684;2022-10-03T08:47:24;101502.44;;;24.57;nan
70468;BME280;57934;51.532;7.684;2022-10-03T08:56:20;101518.03;;;23.18;nan
70468;BME280;57934;51.532;7.684;2022-10-03T08:59:17;101518.28;;;22.99;nan
70468;BME280;57934;51.532;7.684;2022-10-03T09:16:33;101528.25;;;18.76;nan
70468;BME280;57934;51.532;7.684;2022-10-03T09:27:27;101521.59;;;17.44;nan
70468;BME280;57934;51.532;7.684;2022-10-03T09:36:14;101515.53;;;21.91;nan
70468;BME280;57934;51.532;7.684;2022-10-03T09:39:00;101519.28;;;20.61;nan
70468;BME280;57934;51.532;7.684;2022-10-03T10:27:29;101501.94;;;18.03;nan
70468;BME280;57934;51.532;7.684;2022-10-03T10:30:18;101500.59;;;17.74;nan
70468;BME280;57934;51.532;7.684;2022-10-03T10:41:51;101498.19;;;15.79;nan
70468;BME280;57934;51.532;7.684;2022-10-03T11:16:49;101478.56;;;25.60;nan
70468;BME280;57934;51.532;7.684;2022-10-03T11:19:40;101470.91;;;26.20;nan
70468;BME280;57934;51.532;7.684;2022-10-03T11:44:07;101454.75;;;24.99;nan
70468;BME280;57934;51.532;7.684;2022-10-03T11:54:41;101448.06;;;25.70;nan
70468;BME280;57934;51.532;7.684;2022-10-03T11:57:17;101444.16;;;24.93;nan
70468;BME280;57934;51.532;7.684;2022-10-03T12:05:06;101451.53;;;20.12;nan
70468;BME280;57934;51.532;7.684;2022-10-03T12:07:43;101446.69;;;19.17;nan
70468;BME280;57934;51.532;7.684;2022-10-03T12:13:30;101440.69;;;18.15;nan
70468;BME280;57934;51.532;7.684;2022-10-03T12:15:59;101441.91;;;18.19;nan
70468;BME280;57934;51.532;7.684;2022-10-03T12:21:18;101440.56;;;18.60;nan
70468;BME280;57934;51.532;7.684;2022-10-03T12:24:14;101432.97;;;18.89;nan
70468;BME280;57934;51.532;7.684;2022-10-03T12:29:29;101435.91;;;18.80;nan
70468;BME280;57934;51.532;7.684;2022-10-03T12:35:01;101436.53;;;18.82;nan
70468;BME280;57934;51.532;7.684;2022-10-03T12:37:40;101435.88;;;18.30;nan
70468;BME280;57934;51.532;7.684;2022-10-03T12:45:53;101437.53;;;17.93;nan
70468;BME280;57934;51.532;7.684;2022-10-03T12:53:55;101433.28;;;17.79;nan
70468;BME280;57934;51.532;7.684;2022-10-03T12:56:48;101434.88;;;17.86;nan
70468;BME280;57934;51.532;7.684;2022-10-03T12:59:17;101428.56;;;17.81;nan
70468;BME280;57934;51.532;7.684;2022-10-03T13:07:26;101430.13;;;17.30;nan
70468;BME280;57934;51.532;7.684;2022-10-03T13:10:08;101435.53;;;17.10;nan
70468;BME280;57934;51.532;7.684;2022-10-03T13:13:07;101444.75;;;17.21;nan
70468;BME280;57934;51.532;7.684;2022-10-03T13:18:18;101435.31;;;16.99;nan
70468;BME280;57934;51.532;7.684;2022-10-03T13:20:54;101433.28;;;16.94;nan
70468;BME280;57934;51.532;7.684;2022-10-03T13:23:44;101438.44;;;16.82;nan
70468;BME280;57934;51.532;7.684;2022-10-03T13:26:26;101432.44;;;16.67;nan
70468;BME280;57934;51.532;7.684;2022-10-03T13:29:19;101440.63;;;16.45;nan
70468;BME280;57934;51.532;7.684;2022-10-03T13:32:17;101444.72;;;16.41;nan
70468;BME280;57934;51.532;7.684;2022-10-03T13:35:01;101441.06;;;16.56;nan
70468;BME280;57934;51.532;7.684;2022-10-03T13:37:58;101442.91;;;16.68;nan
70468;BME280;57934;51.532;7.684;2022-10-03T13:40:30;101444.38;;;16.84;nan
70468;BME280;57934;51.532;7.684;2022-10-03T13:43:01;101434.97;;;16.88;nan
70468;BME280;57934;51.532;7.684;2022-10-03T13:45:29;101424.25;;;17.02;nan
70468;BME280;57934;51.532;7.684;2022-10-03T13:48:05;101428.97;;;16.66;nan
70468;BME280;57934;51.532;7.684;2022-10-03T13:50:33;101428.38;;;16.64;nan
70468;BME280;57934;51.532;7.684;2022-10-03T13:53:16;101426.75;;;16.57;nan
70468;BME280;57934;51.532;7.684;2022-10-03T13:55:48;101425.50;;;16.66;nan
70468;BME280;57934;51.532;7.684;2022-10-03T13:58:32;101420.38;;;16.58;nan
70468;BME280;57934;51.532;7.684;2022-10-03T14:03:52;101420.97;;;16.60;nan
70468;BME280;57934;51.532;7.684;2022-10-03T14:12:03;101407.50;;;16.75;nan
70468;BME280;57934;51.532;7.684;2022-10-03T14:17:35;101416.47;;;16.67;nan
70468;BME280;57934;51.532;7.684;2022-10-03T14:20:20;101400.72;;;16.59;nan
70468;BME280;57934;51.532;7.684;2022-10-03T14:22:55;101403.16;;;16.67;nan
70468;BME280;57934;51.532;7.684;2022-10-03T14:31:09;101392.09;;;16.90;nan
70468;BME280;57934;51.532;7.684;2022-10-03T14:33:43;101387.81;;;16.96;nan
70468;BME280;57934;51.532;7.684;2022-10-03T14:36:28;101382.47;;;16.96;nan
70468;BME280;57934;51.532;7.684;2022-10-03T14:39:34;101391.69;;;16.86;nan
70468;BME280;57934;51.532;7.684;2022-10-03T14:42:24;101394.78;;;16.90;nan
70468;BME280;57934;51.532;7.684;2022-10-03T14:44:58;101392.75;;;16.85;nan
70468;BME280;57934;51.532;7.684;2022-10-03T14:47:35;101392.72;;;16.72;nan
70468;BME280;57934;51.532;7.684;2022-10-03T14:50:02;101389.84;;;16.67;nan
70468;BME280;57934;51.532;7.684;2022-10-03T14:52:44;101380.03;;;16.67;nan
70468;BME280;57934;51.532;7.684;2022-10-03T14:55:18;101386.34;;;16.73;nan
70468;BME280;57934;51.532;7.684;2022-10-03T14:57:52;101392.72;;;16.72;nan
70468;BME280;57934;51.532;7.684;2022-10-03T15:03:12;101378.59;;;16.52;nan
70468;BME280;57934;51.532;7.684;2022-10-03T15:05:56;101383.28;;;16.50;nan
70468;BME280;57934;51.532;7.684;2022-10-03T15:08:28;101377.34;;;16.41;nan
70468;BME280;57934;51.532;7.684;2022-10-03T15:10:56;101378.59;;;16.38;nan
70468;BME280;57934;51.532;7.684;2022-10-03T15:13:24;101379.22;;;16.40;nan
70468;BME280;57934;51.532;7.684;2022-10-03T15:15:53;101371.41;;;16.52;nan
70468;BME280;57934;51.532;7.684;2022-10-03T15:18:22;101378.81;;;16.57;nan
70468;BME280;57934;51.532;7.684;2022-10-03T15:20:52;101375.09;;;16.58;nan
70468;BME280;57934;51.532;7.684;2022-10-03T15:23:24;101371.63;;;16.51;nan
70468;BME280;57934;51.532;7.684;2022-10-03T15:25:52;101368.75;;;16.39;nan
70468;BME280;57934;51.532;7.684;2022-10-03T15:30:53;101360.97;;;16.44;nan
70468;BME280;57934;51.532;7.684;2022-10-03T15:33:34;101358.31;;;16.44;nan
70468;BME280;57934;51.532;7.684;2022-10-03T15:36:15;101362.81;;;16.30;nan
70468;BME280;57934;51.532;7.684;2022-10-03T15:38:48;101352.41;;;16.29;nan
70468;BME280;57934;51.532;7.684;2022-10-03T15:41:21;101354.41;;;16.20;nan
70468;BME280;57934;51.532;7.684;2022-10-03T15:44:05;101347.06;;;16.15;nan
70468;BME280;57934;51.532;7.684;2022-10-03T15:49:18;101343.34;;;16.03;nan
70468;BME280;57934;51.532;7.684;2022-10-03T15:51:46;101339.25;;;15.94;nan
70468;BME280;57934;51.532;7.684;2022-10-03T15:54:21;101341.50;;;15.90;nan
70468;BME280;57934;51.532;7.684;2022-10-03T15:56:53;101330.84;;;15.84;nan
70468;BME280;57934;51.532;7.684;2022-10-03T15:59:25;101331.66;;;15.78;nan
70468;BME280;57934;51.532;7.684;2022-10-03T16:01:55;101330.00;;;15.70;nan
70468;BME280;57934;51.532;7.684;2022-10-03T16:04:29;101323.81;;;15.63;nan
70468;BME280;57934;51.532;7.684;2022-10-03T16:07:06;101320.31;;;15.56;nan
70468;BME280;57934;51.532;7.684;2022-10-03T16:10:09;101323.75;;;15.43;nan
70468;BME280;57934;51.532;7.684;2022-10-03T16:17:55;101325.00;;;15.06;nan
70468;BME280;57934;51.532;7.684;2022-10-03T16:23:09;101316.53;;;14.82;nan
70468;BME280;57934;51.532;7.684;2022-10-03T16:26:03;101317.91;;;14.71;nan
70468;BME280;57934;51.532;7.684;2022-10-03T16:28:42;101321.13;;;14.67;nan
70468;BME280;57934;51.532;7.684;2022-10-03T16:31:28;101322.91;;;14.60;nan
70468;BME280;57934;51.532;7.684;2022-10-03T16:34:02;101317.75;;;14.51;nan
70468;BME280;57934;51.532;7.684;2022-10-03T16:36:30;101312.13;;;14.40;nan
70468;BME280;57934;51.532;7.684;2022-10-03T16:38:59;101312.69;;;14.35;nan
70468;BME280;57934;51.532;7.684;2022-10-03T16:41:32;101314.41;;;14.21;nan
70468;BME280;57934;51.532;7.684;2022-10-03T16:44:05;101316.63;;;14.18;nan
70468;BME280;57934;51.532;7.684;2022-10-03T16:46:43;101324.75;;;14.09;nan
70468;BME280;57934;51.532;7.684;2022-10-03T16:52:35;101327.97;;;13.83;nan
70468;BME280;57934;51.532;7.684;2022-10-03T16:55:51;101328.28;;;13.74;nan
70468;BME280;57934;51.532;7.684;2022-10-03T16:57:55;101322.00;;;13.60;nan
70468;BME280;57934;51.532;7.684;2022-10-03T17:00:25;101326.53;;;13.45;nan
70468;BME280;57934;51.532;7.684;2022-10-03T17:02:55;101332.56;;;13.39;nan
70468;BME280;57934;51.532;7.684;2022-10-03T17:05:22;101325.91;;;13.28;nan
70468;BME280;57934;51.532;7.684;2022-10-03T17:07:54;101325.28;;;13.26;nan
70468;BME280;57934;51.532;7.684;2022-10-03T17:12:59;101327.56;;;13.14;nan
70468;BME280;57934;51.532;7.684;2022-10-03T17:15:31;101325.19;;;13.04;nan
70468;BME280;57934;51.532;7.684;2022-10-03T17:20:43;101319.63;;;12.99;nan
70468;BME280;57934;51.532;7.684;2022-10-03T17:23:21;101322.19;;;12.93;nan
70468;BME280;57934;51.532;7.684;2022-10-03T17:26:02;101323.44;;;12.82;nan
70468;BME280;57934;51.532;7.684;2022-10-03T17:31:37;101314.66;;;12.66;nan
70468;BME280;57934;51.532;7.684;2022-10-03T17:36:49;101313.28;;;12.56;nan
70468;BME280;57934;51.532;7.684;2022-10-03T17:39:54;101306.09;;;12.50;nan
70468;BME280;57934;51.532;7.684;2022-10-03T17:42:40;101303.44;;;12.50;nan
70468;BME280;57934;51.532;7.684;2022-10-03T17:45:17;101300.25;;;12.39;nan
70468;BME280;57934;51.532;7.684;2022-10-03T17:48:03;101312.34;;;12.34;nan
70468;BME280;57934;51.532;7.684;2022-10-03T17:50:51;101308.13;;;12.25;nan
70468;BME280;57934;51.532;7.684;2022-10-03T17:53:30;101308.38;;;12.15;nan
70468;BME280;57934;51.532;7.684;2022-10-03T17:56:02;101301.78;;;12.11;nan
70468;BME280;57934;51.532;7.684;2022-10-03T17:58:30;101296.69;;;12.09;nan
70468;BME280;57934;51.532;7.684;2022-10-03T18:01:19;101299.69;;;12.06;nan
70468;BME280;57934;51.532;7.684;2022-10-03T18:03:52;101297.75;;;12.00;nan
70468;BME280;57934;51.532;7.684;2022-10-03T18:08:48;101297.00;;;11.91;nan
70468;BME280;57934;51.532;7.684;2022-10-03T18:11:20;101295.53;;;11.89;nan
70468;BME280;57934;51.532;7.684;2022-10-03T18:13:51;101296.72;;;11.78;nan
70468;BME280;57934;51.532;7.684;2022-10-03T18:16:33;101289.97;;;11.76;nan
70468;BME280;57934;51.532;7.684;2022-10-03T18:27:39;101284.28;;;11.64;nan
70468;BME280;57934;51.532;7.684;2022-10-03T18:30:19;101291.94;;;11.51;nan
70468;BME280;57934;51.532;7.684;2022-10-03T18:32:48;101284.22;;;11.49;nan
70468;BME280;57934;51.532;7.684;2022-10-03T18:35:26;101280.91;;;11.47;nan
70468;BME280;57934;51.532;7.684;2022-10-03T18:38:05;101279.00;;;11.41;nan
70468;BME280;57934;51.532;7.684;2022-10-03T18:40:40;101280.91;;;11.47;nan
70468;BME280;57934;51.532;7.684;2022-10-03T18:43:31;101279.75;;;11.50;nan
70468;BME280;57934;51.532;7.684;2022-10-03T18:46:02;101280.63;;;11.42;nan
70468;BME280;57934;51.532;7.684;2022-10-03T18:48:47;101281.97;;;11.38;nan
70468;BME280;57934;51.532;7.684;2022-10-03T18:51:26;101283.66;;;11.31;nan
70468;BME280;57934;51.532;7.684;2022-10-03T18:54:00;101283.34;;;11.26;nan
70468;BME280;57934;51.532;7.684;2022-10-03T18:56:28;101283.69;;;11.22;nan
70468;BME280;57934;51.532;7.684;2022-10-03T18:59:19;101272.31;;;11.22;nan
70468;BME280;57934;51.532;7.684;2022-10-03T19:01:51;101270.81;;;11.19;nan
70468;BME280;57934;51.532;7.684;2022-10-03T19:06:51;101262.31;;;11.09;nan
70468;BME280;57934;51.532;7.684;2022-10-03T19:09:32;101264.81;;;11.03;nan
70468;BME280;57934;51.532;7.684;2022-10-03T19:12:16;101264.50;;;10.97;nan
70468;BME280;57934;51.532;7.684;2022-10-03T19:20:24;101266.19;;;10.90;nan
70468;BME280;57934;51.532;7.684;2022-10-03T19:26:18;101267.84;;;10.83;nan
70468;BME280;57934;51.532;7.684;2022-10-03T19:28:47;101275.94;;;10.82;nan
70468;BME280;57934;51.532;7.684;2022-10-03T19:31:17;101279.94;;;10.78;nan
70468;BME280;57934;51.532;7.684;2022-10-03T19:33:57;101276.63;;;10.75;nan
70468;BME280;57934;51.532;7.684;2022-10-03T19:36:35;101277.44;;;10.76;nan
70468;BME280;57934;51.532;7.684;2022-10-03T19:39:03;101277.78;;;10.73;nan
70468;BME280;57934;51.532;7.684;2022-10-03T19:41:37;101287.22;;;10.67;nan
70468;BME280;57934;51.532;7.684;2022-10-03T19:44:19;101285.22;;;10.69;nan
70468;BME280;57934;51.532;7.684;2022-10-03T19:47:00;101285.38;;;10.68;nan
70468;BME280;57934;51.532;7.684;2022-10-03T19:49:34;101278.94;;;10.70;nan
70468;BME280;57934;51.532;7.684;2022-10-03T19:54:51;101275.66;;;10.68;nan
70468;BME280;57934;51.532;7.684;2022-10-03T19:57:22;101287.84;;;10.69;nan
70468;BME280;57934;51.532;7.684;2022-10-03T19:59:52;101279.28;;;10.67;nan
70468;BME280;57934;51.532;7.684;2022-10-03T20:02:24;101281.56;;;10.70;nan
70468;BME280;57934;51.532;7.684;2022-10-03T20:04:53;101277.97;;;10.71;nan
70468;BME280;57934;51.532;7.684;2022-10-03T20:10:08;101272.50;;;10.73;nan
70468;BME280;57934;51.532;7.684;2022-10-03T20:12:39;101275.00;;;10.74;nan
70468;BME280;57934;51.532;7.684;2022-10-03T20:15:20;101267.88;;;10.75;nan
70468;BME280;57934;51.532;7.684;2022-10-03T20:17:49;101261.63;;;10.76;nan
70468;BME280;57934;51.532;7.684;2022-10-03T20:20:19;101257.34;;;10.75;nan
70468;BME280;57934;51.532;7.684;2022-10-03T20:22:47;101259.66;;;10.78;nan
70468;BME280;57934;51.532;7.684;2022-10-03T20:25:38;101261.94;;;10.81;nan
70468;BME280;57934;51.532;7.684;2022-10-03T20:28:16;101262.75;;;10.82;nan
70468;BME280;57934;51.532;7.684;2022-10-03T20:30:46;101271.31;;;10.84;nan
70468;BME280;57934;51.532;7.684;2022-10-03T20:33:27;101280.03;;;10.84;nan
70468;BME280;57934;51.532;7.684;2022-10-03T20:35:58;101276.59;;;10.84;nan
70468;BME280;57934;51.532;7.684;2022-10-03T20:46:44;101276.97;;;10.72;nan
70468;BME280;57934;51.532;7.684;2022-10-03T20:49:21;101277.28;;;10.69;nan
70468;BME280;57934;51.532;7.684;2022-10-03T20:54:18;101273.69;;;10.62;nan
70468;BME280;57934;51.532;7.684;2022-10-03T20:57:16;101275.03;;;10.58;nan
70468;BME280;57934;51.532;7.684;2022-10-03T20:59:48;101265.97;;;10.52;nan
70468;BME280;57934;51.532;7.684;2022-10-03T21:05:14;101265.66;;;10.47;nan
70468;BME280;57934;51.532;7.684;2022-10-03T21:07:50;101257.41;;;10.42;nan
70468;BME280;57934;51.532;7.684;2022-10-03T21:10:19;101269.13;;;10.40;nan
70468;BME280;57934;51.532;7.684;2022-10-03T21:12:54;101257.94;;;10.46;nan
70468;BME280;57934;51.532;7.684;2022-10-03T21:15:31;101260.22;;;10.41;nan
70468;BME280;57934;51.532;7.684;2022-10-03T21:18:00;101269.78;;;10.42;nan
70468;BME280;57934;51.532;7.684;2022-10-03T21:20:33;101264.69;;;10.40;nan
70468;BME280;57934;51.532;7.684;2022-10-03T21:23:03;101255.94;;;10.40;nan
70468;BME280;57934;51.532;7.684;2022-10-03T21:25:33;101258.75;;;10.38;nan
70468;BME280;57934;51.532;7.684;2022-10-03T21:28:01;101257.28;;;10.36;nan
70468;BME280;57934;51.532;7.684;2022-10-03T21:30:50;101261.69;;;10.35;nan
70468;BME280;57934;51.532;7.684;2022-10-03T21:33:37;101255.47;;;10.28;nan
70468;BME280;57934;51.532;7.684;2022-10-03T21:36:07;101246.91;;;10.26;nan
70468;BME280;57934;51.532;7.684;2022-10-03T21:38:36;101242.13;;;10.21;nan
70468;BME280;57934;51.532;7.684;2022-10-03T21:41:22;101241.44;;;10.19;nan
70468;BME280;57934;51.532;7.684;2022-10-03T21:43:54;101238.81;;;10.19;nan
70468;BME280;57934;51.532;7.684;2022-10-03T21:54:31;101231.06;;;10.10;nan
70468;BME280;57934;51.532;7.684;2022-10-03T21:59:58;101226.31;;;10.05;nan
70468;BME280;57934;51.532;7.684;2022-10-03T22:07:55;101232.22;;;10.07;nan
70468;BME280;57934;51.532;7.684;2022-10-03T22:10:28;101229.94;;;10.04;nan
70468;BME280;57934;51.532;7.684;2022-10-03T22:13:03;101224.81;;;10.02;nan
70468;BME280;57934;51.532;7.684;2022-10-03T22:15:54;101225.00;;;10.01;nan
70468;BME280;57934;51.532;7.684;2022-10-03T22:18:26;101237.50;;;9.99;nan
70468;BME280;57934;51.532;7.684;2022-10-03T22:21:04;101246.41;;;9.98;nan
70468;BME280;57934;51.532;7.684;2022-10-03T22:23:43;101248.72;;;10.01;nan
70468;BME280;57934;51.532;7.684;2022-10-03T22:29:08;101228.28;;;10.03;nan
70468;BME280;57934;51.532;7.684;2022-10-03T22:31:49;101224.00;;;10.02;nan
70468;BME280;57934;51.532;7.684;2022-10-03T22:36:49;101221.69;;;9.99;nan
70468;BME280;57934;51.532;7.684;2022-10-03T22:39:17;101226.97;;;9.99;nan
70468;BME280;57934;51.532;7.684;2022-10-03T22:41:46;101221.38;;;10.02;nan
70468;BME280;57934;51.532;7.684;2022-10-03T22:44:15;101205.56;;;10.02;nan
70468;BME280;57934;51.532;7.684;2022-10-03T22:46:45;101208.34;;;10.09;nan
70468;BME280;57934;51.532;7.684;2022-10-03T22:49:21;101216.25;;;10.09;nan
70468;BME280;57934;51.532;7.684;2022-10-03T22:51:50;101215.78;;;10.05;nan
70468;BME280;57934;51.532;7.684;2022-10-03T22:54:17;101211.31;;;10.06;nan
70468;BME280;57934;51.532;7.684;2022-10-03T22:57:03;101212.78;;;10.00;nan
70468;BME280;57934;51.532;7.684;2022-10-03T22:59:33;101210.53;;;9.97;nan
70468;BME280;57934;51.532;7.684;2022-10-03T23:02:04;101202.28;;;9.92;nan
70468;BME280;57934;51.532;7.684;2022-10-03T23:04:54;101193.41;;;9.85;nan
70468;BME280;57934;51.532;7.684;2022-10-03T23:10:36;101190.56;;;9.86;nan
70468;BME280;57934;51.532;7.684;2022-10-03T23:13:21;101187.81;;;9.79;nan
70468;BME280;57934;51.532;7.684;2022-10-03T23:15:57;101195.69;;;9.71;nan
70468;BME280;57934;51.532;7.684;2022-10-03T23:18:45;101186.16;;;9.70;nan
70468;BME280;57934;51.532;7.684;2022-10-03T23:21:14;101191.44;;;9.70;nan
70468;BME280;57934;51.532;7.684;2022-10-03T23:24:09;101199.16;;;9.64;nan
70468;BME280;57934;51.532;7.684;2022-10-03T23:29:10;101195.84;;;9.62;nan
70468;BME280;57934;51.532;7.684;2022-10-03T23:50:50;101158.16;;;9.37;nan
70468;BME280;57934;51.532;7.684;2022-10-03T23:53:38;101156.03;;;9.32;nan
70468;BME280;57934;51.532;7.684;2022-10-03T23:56:22;101161.31;;;9.32;nan
